createdAt,value
2018-02-21T00:00:13.029Z,100708.48
2018-02-21T00:02:40.523Z,100719.61
2018-02-21T00:05:07.991Z,100718.36
2018-02-21T00:07:35.474Z,100718.20
2018-02-21T00:10:02.935Z,100726.61
2018-02-21T00:12:30.417Z,100733.68
2018-02-21T00:14:57.884Z,100728.77
2018-02-21T00:17:25.379Z,100729.05
2018-02-21T00:19:52.839Z,100723.38
2018-02-21T00:22:20.336Z,100720.67
2018-02-21T00:24:47.811Z,100728.52
2018-02-21T00:27:15.303Z,100728.63
2018-02-21T00:29:42.784Z,100724.53
2018-02-21T00:32:10.267Z,100722.61
2018-02-21T00:34:37.739Z,100731.66
2018-02-21T00:37:05.229Z,100726.59
2018-02-21T00:39:32.691Z,100727.42
2018-02-21T00:42:00.172Z,100728.28
2018-02-21T00:44:27.666Z,100728.25
2018-02-21T00:46:55.136Z,100742.47
2018-02-21T00:49:22.631Z,100742.88
2018-02-21T00:51:50.096Z,100754.05
2018-02-21T00:54:17.587Z,100755.36
2018-02-21T00:56:45.082Z,100755.54
2018-02-21T00:59:12.577Z,100755.30
2018-02-21T01:01:40.056Z,100769.25
2018-02-21T01:04:07.539Z,100761.39
2018-02-21T01:06:35.015Z,100767.45
2018-02-21T01:09:02.522Z,100766.59
2018-02-21T01:11:30.005Z,100763.63
2018-02-21T01:13:57.508Z,100772.27
2018-02-21T01:16:24.992Z,100770.45
2018-02-21T01:18:52.485Z,100769.76
2018-02-21T01:21:19.959Z,100770.69
2018-02-21T01:23:47.451Z,100771.92
2018-02-21T01:26:14.932Z,100774.84
2018-02-21T01:28:42.423Z,100771.27
2018-02-21T01:31:09.900Z,100781.89
2018-02-21T01:33:37.382Z,100778.48
2018-02-21T01:36:04.855Z,100771.63
2018-02-21T01:38:32.347Z,100775.03
2018-02-21T01:40:59.814Z,100779.84
2018-02-21T01:43:27.527Z,100776.45
2018-02-21T01:45:54.995Z,100780.80
2018-02-21T01:48:22.487Z,100783.66
2018-02-21T01:50:52.782Z,100774.47
2018-02-21T01:53:20.301Z,100772.51
2018-02-21T01:55:47.769Z,100772.40
2018-02-21T01:58:15.291Z,100765.98
2018-02-21T02:00:42.779Z,100775.33
2018-02-21T02:03:10.287Z,100767.83
2018-02-21T02:05:37.774Z,100782.14
2018-02-21T02:08:05.244Z,100782.55
2018-02-21T02:10:32.735Z,100775.13
2018-02-21T02:13:00.195Z,100768.20
2018-02-21T02:15:27.674Z,100763.26
2018-02-21T02:17:55.160Z,100754.68
2018-02-21T02:20:23.180Z,100763.54
2018-02-21T02:22:50.651Z,100780.72
2018-02-21T02:25:18.152Z,100791.75
2018-02-21T02:27:45.635Z,100785.16
2018-02-21T02:30:13.124Z,100777.70
2018-02-21T02:32:40.595Z,100771.64
2018-02-21T02:35:08.085Z,100769.09
2018-02-21T02:37:35.547Z,100774.55
2018-02-21T02:40:03.047Z,100777.36
2018-02-21T02:42:30.520Z,100778.77
2018-02-21T02:44:58.011Z,100775.70
2018-02-21T02:47:25.521Z,100780.03
2018-02-21T02:49:53.008Z,100775.55
2018-02-21T02:52:20.496Z,100772.97
2018-02-21T02:54:47.995Z,100761.42
2018-02-21T02:57:15.472Z,100762.30
2018-02-21T02:59:42.963Z,100764.67
2018-02-21T03:02:10.449Z,100762.45
2018-02-21T03:04:37.945Z,100761.11
2018-02-21T03:07:05.412Z,100758.08
2018-02-21T03:09:32.903Z,100768.44
2018-02-21T03:12:00.375Z,100772.67
2018-02-21T03:14:27.871Z,100777.59
2018-02-21T03:16:55.347Z,100792.42
2018-02-21T03:19:22.834Z,100787.33
2018-02-21T03:21:50.295Z,100796.39
2018-02-21T03:24:17.783Z,100801.89
2018-02-21T03:26:45.261Z,100806.50
2018-02-21T03:29:12.732Z,100816.06
2018-02-21T03:31:40.228Z,100815.01
2018-02-21T03:34:07.711Z,100807.50
2018-02-21T03:36:35.207Z,100815.95
2018-02-21T03:39:02.676Z,100820.97
2018-02-21T03:41:30.182Z,100820.87
2018-02-21T03:43:57.646Z,100818.58
2018-02-21T03:46:25.136Z,100821.02
2018-02-21T03:48:52.632Z,100816.34
2018-02-21T03:51:20.127Z,100818.49
2018-02-21T03:53:47.591Z,100820.65
2018-02-21T03:56:15.079Z,100826.26
2018-02-21T03:58:42.547Z,100827.59
2018-02-21T04:01:10.047Z,100832.91
2018-02-21T04:03:37.520Z,100840.95
2018-02-21T04:06:05.012Z,100841.79
2018-02-21T04:08:32.489Z,100833.93
2018-02-21T04:10:59.971Z,100837.02
2018-02-21T04:13:27.434Z,100841.97
2018-02-21T04:15:54.922Z,100855.76
2018-02-21T04:18:22.392Z,100859.37
2018-02-21T04:20:49.895Z,100858.88
2018-02-21T04:23:17.372Z,100861.97
2018-02-21T04:25:44.854Z,100859.31
2018-02-21T04:28:12.324Z,100850.43
2018-02-21T04:30:39.811Z,100857.61
2018-02-21T04:33:07.278Z,100864.34
2018-02-21T04:35:34.768Z,100870.81
2018-02-21T04:38:02.237Z,100876.08
2018-02-21T04:40:29.735Z,100879.34
2018-02-21T04:42:57.199Z,100876.75
2018-02-21T04:45:24.700Z,100859.50
2018-02-21T04:47:52.168Z,100875.34
2018-02-21T04:50:19.659Z,100873.84
2018-02-21T04:52:47.142Z,100874.75
2018-02-21T04:55:20.136Z,100872.03
2018-02-21T05:00:54.444Z,100885.47
2018-02-21T05:03:21.924Z,100879.34
2018-02-21T05:05:49.427Z,100879.70
2018-02-21T05:08:16.903Z,100878.19
2018-02-21T05:10:44.367Z,100873.19
2018-02-21T05:13:11.867Z,100877.96
2018-02-21T05:15:39.347Z,100878.21
2018-02-21T05:18:06.840Z,100878.63
2018-02-21T05:20:34.313Z,100881.64
2018-02-21T05:23:01.823Z,100883.88
2018-02-21T05:25:29.282Z,100884.20
2018-02-21T05:27:56.792Z,100891.77
2018-02-21T05:30:24.263Z,100888.44
2018-02-21T05:32:51.754Z,100887.95
2018-02-21T05:35:19.243Z,100888.37
2018-02-21T05:37:46.735Z,100880.73
2018-02-21T05:40:14.209Z,100884.20
2018-02-21T05:42:41.708Z,100882.07
2018-02-21T05:45:09.557Z,100882.14
2018-02-21T05:47:37.057Z,100875.45
2018-02-21T05:50:04.523Z,100869.28
2018-02-21T05:52:32.018Z,100874.53
2018-02-21T05:54:59.500Z,100871.37
2018-02-21T05:57:26.999Z,100873.84
2018-02-21T05:59:54.471Z,100874.33
2018-02-21T06:02:21.975Z,100877.16
2018-02-21T06:04:49.463Z,100872.56
2018-02-21T06:07:16.962Z,100882.06
2018-02-21T06:09:44.433Z,100874.15
2018-02-21T06:12:11.926Z,100882.55
2018-02-21T06:14:39.423Z,100878.38
2018-02-21T06:17:06.919Z,100873.83
2018-02-21T06:19:34.399Z,100877.16
2018-02-21T06:22:03.301Z,100875.37
2018-02-21T06:24:30.784Z,100884.84
2018-02-21T06:26:58.250Z,100883.41
2018-02-21T06:29:25.755Z,100892.48
2018-02-21T06:31:53.219Z,100887.58
2018-02-21T06:34:20.723Z,100906.88
2018-02-21T06:36:49.318Z,100919.41
2018-02-21T06:39:16.837Z,100903.44
2018-02-21T06:41:44.311Z,100897.97
2018-02-21T06:44:11.808Z,100898.99
2018-02-21T06:46:39.288Z,100896.98
2018-02-21T06:49:06.796Z,100903.28
2018-02-21T06:51:34.294Z,100908.11
2018-02-21T06:54:02.016Z,100910.60
2018-02-21T06:56:29.491Z,100916.59
2018-02-21T07:01:30.919Z,100923.06
2018-02-21T07:03:58.415Z,100928.74
2018-02-21T07:06:25.900Z,100929.25
2018-02-21T07:08:53.395Z,100936.38
2018-02-21T07:11:20.885Z,100941.03
2018-02-21T07:13:48.380Z,100928.08
2018-02-21T07:16:15.876Z,100925.67
2018-02-21T07:18:43.367Z,100934.19
2018-02-21T07:21:10.839Z,100934.44
2018-02-21T07:23:38.339Z,100933.84
2018-02-21T07:26:05.811Z,100944.36
2018-02-21T07:28:33.311Z,100946.98
2018-02-21T07:31:00.782Z,100956.34
2018-02-21T07:33:28.274Z,100957.96
2018-02-21T07:35:55.751Z,100962.45
2018-02-21T07:38:23.259Z,100958.70
2018-02-21T07:40:50.764Z,100967.11
2018-02-21T07:43:18.266Z,100969.53
2018-02-21T07:45:45.741Z,100963.71
2018-02-21T07:48:13.243Z,100959.12
2018-02-21T07:50:40.719Z,100961.49
2018-02-21T07:53:08.195Z,100971.42
2018-02-21T07:55:35.684Z,100974.67
2018-02-21T07:58:03.159Z,100970.91
2018-02-21T08:00:30.663Z,100966.50
2018-02-21T08:02:58.170Z,100963.11
2018-02-21T08:05:25.644Z,100964.38
2018-02-21T08:07:53.114Z,100964.56
2018-02-21T08:10:20.599Z,100962.00
2018-02-21T08:12:53.585Z,100962.33
2018-02-21T08:15:21.129Z,100961.20
2018-02-21T08:17:48.574Z,100959.69
2018-02-21T08:20:16.064Z,100969.95
2018-02-21T08:22:43.523Z,100958.53
2018-02-21T08:25:11.019Z,100964.45
2018-02-21T08:27:38.479Z,100962.78
2018-02-21T08:30:05.967Z,100954.71
2018-02-21T08:32:33.427Z,100955.53
2018-02-21T08:35:00.920Z,100956.94
2018-02-21T08:37:28.400Z,100950.77
2018-02-21T08:39:55.884Z,100952.95
2018-02-21T08:42:23.343Z,100961.36
2018-02-21T08:44:50.847Z,100957.29
2018-02-21T08:47:18.303Z,100957.02
2018-02-21T08:49:45.788Z,100959.93
2018-02-21T08:52:13.271Z,100958.08
2018-02-21T08:54:40.761Z,100956.52
2018-02-21T08:57:08.232Z,100960.56
2018-02-21T08:59:35.715Z,100961.72
2018-02-21T09:02:03.183Z,100963.55
2018-02-21T09:04:30.662Z,100965.63
2018-02-21T09:06:58.122Z,100964.11
2018-02-21T09:09:25.603Z,100964.86
2018-02-21T09:11:53.070Z,100958.16
2018-02-21T09:14:20.555Z,100958.69
2018-02-21T09:16:48.032Z,100962.14
2018-02-21T09:19:15.491Z,100961.44
2018-02-21T09:21:43.734Z,100957.30
2018-02-21T09:24:11.436Z,100947.58
2018-02-21T09:26:39.167Z,100941.57
2018-02-21T09:29:06.652Z,100938.37
2018-02-21T09:31:34.376Z,100940.94
2018-02-21T09:34:03.100Z,100938.48
2018-02-21T09:36:30.647Z,100937.89
2018-02-21T09:38:58.175Z,100939.05
2018-02-21T09:41:25.888Z,100935.78
2018-02-21T09:43:53.855Z,100940.11
2018-02-21T09:46:21.741Z,100933.18
2018-02-21T09:48:49.503Z,100942.52
2018-02-21T09:51:17.015Z,100933.77
2018-02-21T09:53:45.256Z,100936.80
2018-02-21T09:56:12.777Z,100936.31
2018-02-21T09:58:40.239Z,100934.22
2018-02-21T10:01:07.752Z,100932.71
2018-02-21T10:03:35.600Z,100933.83
2018-02-21T10:06:03.083Z,100927.02
2018-02-21T10:08:30.838Z,100925.00
2018-02-21T10:10:58.339Z,100916.95
2018-02-21T10:13:25.827Z,100921.34
2018-02-21T10:15:53.568Z,100917.38
2018-02-21T10:18:21.476Z,100923.27
2018-02-21T10:20:50.314Z,100928.61
2018-02-21T10:23:18.719Z,100929.39
2018-02-21T10:25:47.143Z,100933.89
2018-02-21T10:28:14.621Z,100928.19
2018-02-21T10:30:42.116Z,100922.78
2018-02-21T10:33:09.587Z,100922.42
2018-02-21T10:35:37.346Z,100927.06
2018-02-21T10:38:05.656Z,100929.59
2018-02-21T10:40:33.372Z,100932.52
2018-02-21T10:43:00.925Z,100932.80
2018-02-21T10:45:28.432Z,100929.83
2018-02-21T10:47:55.980Z,100925.98
2018-02-21T10:50:23.868Z,100915.18
2018-02-21T10:52:51.920Z,100920.66
2018-02-21T10:55:19.378Z,100918.11
2018-02-21T10:57:46.854Z,100915.59
2018-02-21T11:00:19.858Z,100917.08
2018-02-21T11:02:47.992Z,100917.53
2018-02-21T11:05:15.687Z,100917.11
2018-02-21T11:07:44.134Z,100912.63
2018-02-21T11:10:12.060Z,100923.63
2018-02-21T11:12:39.559Z,100923.92
2018-02-21T11:15:07.295Z,100916.91
2018-02-21T11:17:35.066Z,100914.47
2018-02-21T11:20:02.980Z,100907.13
2018-02-21T11:22:31.223Z,100917.86
2018-02-21T11:24:59.097Z,100908.43
2018-02-21T11:27:27.497Z,100913.43
2018-02-21T11:29:55.005Z,100907.72
2018-02-21T11:32:22.491Z,100906.82
2018-02-21T11:34:50.382Z,100905.67
2018-02-21T11:37:17.889Z,100904.70
2018-02-21T11:39:45.423Z,100898.47
2018-02-21T11:42:13.181Z,100901.23
2018-02-21T11:44:40.986Z,100904.38
2018-02-21T11:47:08.714Z,100910.91
2018-02-21T11:49:36.204Z,100901.36
2018-02-21T11:52:04.407Z,100899.69
2018-02-21T11:54:31.884Z,100898.86
2018-02-21T11:56:59.688Z,100892.48
2018-02-21T11:59:27.650Z,100893.97
2018-02-21T12:01:55.984Z,100889.83
2018-02-21T12:04:23.472Z,100895.12
2018-02-21T12:06:50.976Z,100893.16
2018-02-21T12:09:19.292Z,100890.99
2018-02-21T12:11:46.788Z,100886.36
2018-02-21T12:14:14.900Z,100880.34
2018-02-21T12:16:42.769Z,100873.23
2018-02-21T12:19:10.546Z,100881.71
2018-02-21T12:21:38.034Z,100880.84
2018-02-21T12:24:06.237Z,100877.86
2018-02-21T12:26:33.812Z,100879.20
2018-02-21T12:29:01.305Z,100881.59
2018-02-21T12:31:29.740Z,100883.11
2018-02-21T12:33:57.747Z,100876.24
2018-02-21T12:36:25.447Z,100882.81
2018-02-21T12:38:58.497Z,100868.91
2018-02-21T12:41:43.117Z,100869.64
2018-02-21T12:44:11.299Z,100864.18
2018-02-21T12:46:38.772Z,100865.37
2018-02-21T12:49:06.263Z,100868.15
2018-02-21T12:51:33.732Z,100862.98
2018-02-21T12:54:01.615Z,100859.67
2018-02-21T12:56:29.070Z,100868.62
2018-02-21T12:58:57.485Z,100858.05
2018-02-21T13:01:25.868Z,100856.19
2018-02-21T13:03:53.645Z,100856.75
2018-02-21T13:06:21.155Z,100863.13
2018-02-21T13:08:48.684Z,100847.52
2018-02-21T13:11:16.674Z,100844.80
2018-02-21T13:13:44.618Z,100842.42
2018-02-21T13:16:12.085Z,100843.28
2018-02-21T13:18:40.363Z,100841.09
2018-02-21T13:21:07.878Z,100838.61
2018-02-21T13:23:35.615Z,100842.94
2018-02-21T13:26:03.883Z,100833.80
2018-02-21T13:28:31.592Z,100834.13
2018-02-21T13:30:59.983Z,100829.78
2018-02-21T13:33:27.476Z,100822.70
2018-02-21T13:35:54.990Z,100822.30
2018-02-21T13:38:22.483Z,100825.45
2018-02-21T13:40:49.951Z,100821.34
2018-02-21T13:43:17.441Z,100808.64
2018-02-21T13:45:44.910Z,100810.75
2018-02-21T13:48:12.395Z,100816.52
2018-02-21T13:50:39.859Z,100806.97
2018-02-21T13:53:07.339Z,100808.52
2018-02-21T13:55:34.800Z,100795.67
2018-02-21T13:58:02.310Z,100796.23
2018-02-21T14:00:29.779Z,100782.61
2018-02-21T14:02:57.249Z,100789.23
2018-02-21T14:05:24.737Z,100788.52
2018-02-21T14:07:52.207Z,100782.30
2018-02-21T14:10:19.693Z,100775.86
2018-02-21T14:12:47.168Z,100779.49
2018-02-21T14:15:14.655Z,100772.52
2018-02-21T14:17:42.115Z,100772.95
2018-02-21T14:20:09.595Z,100765.20
2018-02-21T14:22:37.059Z,100751.52
2018-02-21T14:25:04.547Z,100758.05
2018-02-21T14:27:32.033Z,100760.14
2018-02-21T14:29:59.538Z,100751.55
2018-02-21T14:32:27.016Z,100762.60
2018-02-21T14:34:54.503Z,100747.26
2018-02-21T14:37:21.979Z,100745.14
2018-02-21T14:39:49.471Z,100734.23
2018-02-21T14:42:16.935Z,100740.16
2018-02-21T14:44:44.414Z,100741.72
2018-02-21T14:47:11.883Z,100743.73
2018-02-21T14:49:39.375Z,100737.80
2018-02-21T14:52:06.875Z,100743.39
2018-02-21T14:54:34.368Z,100739.70
2018-02-21T14:57:01.836Z,100741.78
2018-02-21T14:59:29.327Z,100747.27
2018-02-21T15:01:56.799Z,100745.94
2018-02-21T15:04:24.287Z,100748.09
2018-02-21T15:06:51.751Z,100749.34
2018-02-21T15:09:19.239Z,100745.76
2018-02-21T15:11:46.705Z,100743.25
2018-02-21T15:14:14.183Z,100735.20
2018-02-21T15:16:41.655Z,100746.16
2018-02-21T15:19:09.141Z,100741.98
2018-02-21T15:21:36.610Z,100745.25
2018-02-21T15:24:04.281Z,100746.69
2018-02-21T15:26:31.807Z,100755.70
2018-02-21T15:28:59.300Z,100752.51
2018-02-21T15:31:26.787Z,100748.14
2018-02-21T15:33:54.255Z,100749.86
2018-02-21T15:36:21.751Z,100743.27
2018-02-21T15:38:49.253Z,100744.58
2018-02-21T15:41:16.719Z,100741.23
2018-02-21T15:43:44.183Z,100743.08
2018-02-21T15:46:11.675Z,100736.08
2018-02-21T15:48:39.171Z,100740.95
2018-02-21T15:51:06.667Z,100738.04
2018-02-21T15:53:34.145Z,100735.06
2018-02-21T15:56:01.642Z,100741.04
2018-02-21T15:58:29.112Z,100734.83
2018-02-21T16:00:56.598Z,100737.52
2018-02-21T16:03:24.080Z,100729.55
2018-02-21T16:05:51.583Z,100742.28
2018-02-21T16:08:19.064Z,100742.39
2018-02-21T16:10:46.557Z,100745.48
2018-02-21T16:13:14.023Z,100740.66
2018-02-21T16:15:41.520Z,100736.29
2018-02-21T16:18:09.007Z,100739.50
2018-02-21T16:20:36.493Z,100735.55
2018-02-21T16:23:03.959Z,100731.07
2018-02-21T16:25:31.444Z,100738.74
2018-02-21T16:27:58.932Z,100738.38
2018-02-21T16:30:26.439Z,100734.12
2018-02-21T16:32:55.240Z,100739.34
2018-02-21T16:35:22.744Z,100733.27
2018-02-21T16:37:50.211Z,100740.54
2018-02-21T16:40:17.690Z,100737.35
2018-02-21T16:42:45.163Z,100748.25
2018-02-21T16:45:12.675Z,100752.44
2018-02-21T16:47:40.168Z,100748.05
2018-02-21T16:50:07.672Z,100735.28
2018-02-21T16:52:35.166Z,100751.75
2018-02-21T16:55:02.664Z,100748.34
2018-02-21T16:57:30.153Z,100747.29
2018-02-21T16:59:57.620Z,100759.53
2018-02-21T17:02:25.099Z,100757.64
2018-02-21T17:04:52.575Z,100762.13
2018-02-21T17:07:20.063Z,100769.03
2018-02-21T17:09:47.551Z,100764.76
2018-02-21T17:12:15.075Z,100769.05
2018-02-21T17:14:43.431Z,100773.62
2018-02-21T17:17:10.945Z,100778.51
2018-02-21T17:19:38.424Z,100777.57
2018-02-21T17:22:05.923Z,100780.47
2018-02-21T17:24:33.425Z,100780.22
2018-02-21T17:27:00.922Z,100782.52
2018-02-21T17:29:28.412Z,100773.53
2018-02-21T17:31:55.944Z,100780.21
2018-02-21T17:34:23.411Z,100786.41
2018-02-21T17:36:51.147Z,100783.32
2018-02-21T17:39:18.651Z,100788.26
2018-02-21T17:41:46.143Z,100780.56
2018-02-21T17:44:15.087Z,100781.62
2018-02-21T17:46:42.984Z,100776.20
2018-02-21T17:49:10.507Z,100780.89
2018-02-21T17:51:38.021Z,100787.47
2018-02-21T17:54:05.501Z,100788.42
2018-02-21T17:56:33.000Z,100790.06
2018-02-21T17:59:00.484Z,100786.80
2018-02-21T18:01:28.045Z,100781.78
2018-02-21T18:03:55.530Z,100785.80
2018-02-21T18:06:23.164Z,100783.57
2018-02-21T18:08:50.668Z,100784.81
2018-02-21T18:11:18.158Z,100795.94
2018-02-21T18:13:45.636Z,100788.47
2018-02-21T18:16:13.136Z,100788.66
2018-02-21T18:18:40.603Z,100784.59
2018-02-21T18:21:08.075Z,100788.24
2018-02-21T18:23:35.567Z,100796.59
2018-02-21T18:26:03.039Z,100794.80
2018-02-21T18:28:30.525Z,100800.75
2018-02-21T18:30:58.000Z,100792.25
2018-02-21T18:33:27.491Z,100791.33
2018-02-21T18:35:54.966Z,100793.03
2018-02-21T18:38:22.444Z,100789.36
2018-02-21T18:40:49.913Z,100788.94
2018-02-21T18:43:17.427Z,100796.48
2018-02-21T18:48:26.911Z,100793.88
2018-02-21T18:50:54.371Z,100796.04
2018-02-21T18:53:21.874Z,100798.28
2018-02-21T18:55:49.341Z,100785.76
2018-02-21T18:58:16.830Z,100787.16
2018-02-21T19:00:44.401Z,100793.39
2018-02-21T19:03:11.889Z,100792.87
2018-02-21T19:05:39.371Z,100785.08
2018-02-21T19:08:06.877Z,100787.78
2018-02-21T19:10:34.349Z,100786.96
2018-02-21T19:13:01.864Z,100789.15
2018-02-21T19:15:29.380Z,100785.20
2018-02-21T19:17:56.899Z,100787.80
2018-02-21T19:20:24.362Z,100783.83
2018-02-21T19:22:51.861Z,100789.70
2018-02-21T19:25:19.325Z,100794.25
2018-02-21T19:27:46.808Z,100792.38
2018-02-21T19:30:15.007Z,100803.12
2018-02-21T19:32:42.504Z,100797.01
2018-02-21T19:35:09.964Z,100790.41
2018-02-21T19:37:37.444Z,100789.80
2018-02-21T19:40:04.907Z,100794.84
2018-02-21T19:42:32.389Z,100799.50
2018-02-21T19:44:59.858Z,100791.98
2018-02-21T19:47:27.335Z,100792.78
2018-02-21T19:49:54.820Z,100786.78
2018-02-21T19:52:22.301Z,100789.98
2018-02-21T19:54:49.793Z,100789.32
2018-02-21T19:57:17.259Z,100799.80
2018-02-21T19:59:44.747Z,100795.12
2018-02-21T20:02:12.206Z,100808.61
2018-02-21T20:04:39.692Z,100802.84
2018-02-21T20:07:07.159Z,100807.09
2018-02-21T20:09:34.653Z,100805.38
2018-02-21T20:12:02.136Z,100807.70
2018-02-21T20:14:29.615Z,100807.39
2018-02-21T20:16:57.080Z,100798.17
2018-02-21T20:19:24.562Z,100802.89
2018-02-21T20:21:52.032Z,100813.83
2018-02-21T20:24:19.576Z,100808.78
2018-02-21T20:26:47.035Z,100816.91
2018-02-21T20:29:14.526Z,100816.27
2018-02-21T20:31:41.991Z,100815.97
2018-02-21T20:34:09.480Z,100826.63
2018-02-21T20:36:36.954Z,100815.43
2018-02-21T20:39:04.467Z,100820.19
2018-02-21T20:41:31.940Z,100821.75
2018-02-21T20:43:59.429Z,100824.87
2018-02-21T20:46:26.903Z,100819.86
2018-02-21T20:48:54.387Z,100824.89
2018-02-21T20:51:21.846Z,100821.47
2018-02-21T20:53:49.343Z,100825.12
2018-02-21T20:56:16.816Z,100828.47
2018-02-21T20:58:44.302Z,100826.83
2018-02-21T21:01:11.779Z,100826.15
2018-02-21T21:03:39.262Z,100827.82
2018-02-21T21:06:06.731Z,100836.17
2018-02-21T21:08:34.256Z,100833.84
2018-02-21T21:11:01.732Z,100840.08
2018-02-21T21:13:29.207Z,100838.09
2018-02-21T21:15:56.715Z,100842.23
2018-02-21T21:18:24.187Z,100837.16
2018-02-21T21:20:51.687Z,100838.06
2018-02-21T21:23:19.154Z,100839.48
2018-02-21T21:25:46.654Z,100840.90
2018-02-21T21:28:14.189Z,100831.06
2018-02-21T21:30:41.671Z,100840.47
2018-02-21T21:33:09.153Z,100835.73
2018-02-21T21:35:36.651Z,100838.40
2018-02-21T21:38:04.127Z,100835.00
2018-02-21T21:40:31.627Z,100828.42
2018-02-21T21:42:59.095Z,100833.33
2018-02-21T21:45:26.591Z,100838.16
2018-02-21T21:47:54.066Z,100830.73
2018-02-21T21:50:21.555Z,100829.08
2018-02-21T21:52:49.035Z,100835.07
2018-02-21T21:55:16.524Z,100832.50
2018-02-21T21:57:44.015Z,100829.33
2018-02-21T22:00:11.503Z,100831.23
2018-02-21T22:02:38.983Z,100828.25
2018-02-21T22:05:06.475Z,100830.84
2018-02-21T22:07:33.938Z,100836.81
2018-02-21T22:10:01.434Z,100832.83
2018-02-21T22:12:28.906Z,100824.91
2018-02-21T22:14:56.452Z,100825.89
2018-02-21T22:17:23.927Z,100822.56
2018-02-21T22:19:51.420Z,100826.63
2018-02-21T22:22:19.631Z,100825.89
2018-02-21T22:24:47.119Z,100827.33
2018-02-21T22:27:14.580Z,100830.20
2018-02-21T22:29:42.124Z,100825.16
2018-02-21T22:32:09.595Z,100830.13
2018-02-21T22:34:37.075Z,100829.89
2018-02-21T22:37:04.566Z,100834.09
2018-02-21T22:39:32.035Z,100833.84
2018-02-21T22:41:59.515Z,100839.31
2018-02-21T22:44:27.008Z,100842.50
2018-02-21T22:46:54.495Z,100841.45
2018-02-21T22:49:21.972Z,100846.36
2018-02-21T22:51:49.459Z,100848.59
2018-02-21T22:54:16.931Z,100851.86
2018-02-21T22:56:44.414Z,100850.11
2018-02-21T22:59:11.882Z,100856.52
2018-02-21T23:01:39.375Z,100861.25
2018-02-21T23:04:06.851Z,100856.23
2018-02-21T23:06:34.691Z,100851.16
2018-02-21T23:09:02.154Z,100851.99
2018-02-21T23:11:29.659Z,100852.97
2018-02-21T23:13:57.152Z,100852.91
2018-02-21T23:16:24.651Z,100848.77
2018-02-21T23:18:52.127Z,100847.52
2018-02-21T23:21:19.610Z,100842.36
2018-02-21T23:23:47.082Z,100848.11
2018-02-21T23:26:14.570Z,100849.58
2018-02-21T23:28:42.035Z,100848.11
2018-02-21T23:31:09.519Z,100847.86
2018-02-21T23:33:36.988Z,100847.94
2018-02-21T23:36:04.480Z,100846.43
2018-02-21T23:38:31.957Z,100840.79
2018-02-21T23:40:59.462Z,100842.22
2018-02-21T23:43:26.925Z,100840.33
2018-02-21T23:45:54.403Z,100835.06
2018-02-21T23:48:21.876Z,100828.83
2018-02-21T23:50:49.384Z,100835.24
2018-02-21T23:53:16.863Z,100834.41
2018-02-21T23:55:44.367Z,100835.63
2018-02-21T23:58:11.844Z,100833.47
